sensor_id;sensor_type;location;lat;lon;timestamp;temperature;humidity
13808;DHT22;40769;51.512;5.494;2022-10-30T00:00:30;19.00;99.90
13808;DHT22;40769;51.512;5.494;2022-10-30T00:02:55;19.60;99.90
13808;DHT22;40769;51.512;5.494;2022-10-30T00:05:21;19.30;99.90
13808;DHT22;40769;51.512;5.494;2022-10-30T00:07:47;18.90;99.90
13808;DHT22;40769;51.512;5.494;2022-10-30T00:10:13;18.90;99.90
13808;DHT22;40769;51.512;5.494;2022-10-30T00:12:39;19.00;99.90
13808;DHT22;40769;51.512;5.494;2022-10-30T00:15:05;18.70;99.90
13808;DHT22;40769;51.512;5.494;2022-10-30T00:17:32;18.90;99.90
13808;DHT22;40769;51.512;5.494;2022-10-30T00:19:58;18.90;99.90
13808;DHT22;40769;51.512;5.494;2022-10-30T00:22:23;18.90;99.90
13808;DHT22;40769;51.512;5.494;2022-10-30T00:24:49;18.90;99.90
13808;DHT22;40769;51.512;5.494;2022-10-30T00:27:14;18.80;99.90
13808;DHT22;40769;51.512;5.494;2022-10-30T00:29:40;18.80;99.90
13808;DHT22;40769;51.512;5.494;2022-10-30T00:32:06;18.70;99.90
13808;DHT22;40769;51.512;5.494;2022-10-30T00:34:32;18.70;99.90
13808;DHT22;40769;51.512;5.494;2022-10-30T00:36:57;18.70;99.90
13808;DHT22;40769;51.512;5.494;2022-10-30T00:39:23;18.60;99.90
13808;DHT22;40769;51.512;5.494;2022-10-30T00:41:49;18.60;99.90
13808;DHT22;40769;51.512;5.494;2022-10-30T00:47:33;18.50;99.90
13808;DHT22;40769;51.512;5.494;2022-10-30T00:50:04;18.50;99.90
13808;DHT22;40769;51.512;5.494;2022-10-30T00:52:35;18.50;99.90
13808;DHT22;40769;51.512;5.494;2022-10-30T00:55:06;18.50;99.90
13808;DHT22;40769;51.512;5.494;2022-10-30T00:57:34;18.40;99.90
13808;DHT22;40769;51.512;5.494;2022-10-30T01:00:03;18.30;99.90
13808;DHT22;40769;51.512;5.494;2022-10-30T01:02:29;18.40;99.90
13808;DHT22;40769;51.512;5.494;2022-10-30T01:04:54;18.20;99.90
13808;DHT22;40769;51.512;5.494;2022-10-30T01:07:20;18.20;99.90
13808;DHT22;40769;51.512;5.494;2022-10-30T01:09:46;18.20;99.90
13808;DHT22;40769;51.512;5.494;2022-10-30T01:12:13;18.10;99.90
13808;DHT22;40769;51.512;5.494;2022-10-30T01:14:47;18.10;99.90
13808;DHT22;40769;51.512;5.494;2022-10-30T01:23:07;18.00;99.90
13808;DHT22;40769;51.512;5.494;2022-10-30T01:34:01;17.80;99.90
13808;DHT22;40769;51.512;5.494;2022-10-30T01:36:37;17.70;99.90
13808;DHT22;40769;51.512;5.494;2022-10-30T01:39:15;17.70;99.90
13808;DHT22;40769;51.512;5.494;2022-10-30T01:41:42;17.70;99.90
13808;DHT22;40769;51.512;5.494;2022-10-30T01:44:14;17.70;99.90
13808;DHT22;40769;51.512;5.494;2022-10-30T01:50:16;17.60;99.90
13808;DHT22;40769;51.512;5.494;2022-10-30T01:52:56;17.60;99.90
13808;DHT22;40769;51.512;5.494;2022-10-30T01:58:19;17.50;99.90
13808;DHT22;40769;51.512;5.494;2022-10-30T02:00:49;17.50;99.90
13808;DHT22;40769;51.512;5.494;2022-10-30T02:03:16;17.50;99.90
13808;DHT22;40769;51.512;5.494;2022-10-30T02:05:46;17.60;99.90
13808;DHT22;40769;51.512;5.494;2022-10-30T02:08:12;17.70;99.90
13808;DHT22;40769;51.512;5.494;2022-10-30T02:10:38;17.40;99.90
13808;DHT22;40769;51.512;5.494;2022-10-30T02:13:05;17.40;99.90
13808;DHT22;40769;51.512;5.494;2022-10-30T02:15:31;17.40;99.90
13808;DHT22;40769;51.512;5.494;2022-10-30T02:17:57;17.30;99.90
13808;DHT22;40769;51.512;5.494;2022-10-30T02:20:23;17.30;99.90
13808;DHT22;40769;51.512;5.494;2022-10-30T02:22:49;17.30;99.90
13808;DHT22;40769;51.512;5.494;2022-10-30T02:25:15;17.30;99.90
13808;DHT22;40769;51.512;5.494;2022-10-30T02:27:41;17.30;99.90
13808;DHT22;40769;51.512;5.494;2022-10-30T02:30:07;17.30;99.90
13808;DHT22;40769;51.512;5.494;2022-10-30T02:32:33;17.30;99.90
13808;DHT22;40769;51.512;5.494;2022-10-30T02:34:59;17.30;99.90
13808;DHT22;40769;51.512;5.494;2022-10-30T02:37:24;17.20;99.90
13808;DHT22;40769;51.512;5.494;2022-10-30T02:39:50;17.50;99.90
13808;DHT22;40769;51.512;5.494;2022-10-30T02:42:16;17.20;99.90
13808;DHT22;40769;51.512;5.494;2022-10-30T02:44:41;17.20;99.90
13808;DHT22;40769;51.512;5.494;2022-10-30T02:47:07;17.20;99.90
13808;DHT22;40769;51.512;5.494;2022-10-30T02:49:33;17.30;99.90
13808;DHT22;40769;51.512;5.494;2022-10-30T02:51:58;17.10;99.90
13808;DHT22;40769;51.512;5.494;2022-10-30T02:54:24;17.10;99.90
13808;DHT22;40769;51.512;5.494;2022-10-30T02:56:50;17.20;99.90
13808;DHT22;40769;51.512;5.494;2022-10-30T02:59:16;17.00;99.90
13808;DHT22;40769;51.512;5.494;2022-10-30T03:01:42;17.00;99.90
13808;DHT22;40769;51.512;5.494;2022-10-30T03:04:08;17.00;99.90
13808;DHT22;40769;51.512;5.494;2022-10-30T03:06:33;16.90;99.90
13808;DHT22;40769;51.512;5.494;2022-10-30T03:08:59;17.00;99.90
13808;DHT22;40769;51.512;5.494;2022-10-30T03:11:24;17.00;99.90
13808;DHT22;40769;51.512;5.494;2022-10-30T03:13:50;16.90;99.90
13808;DHT22;40769;51.512;5.494;2022-10-30T03:16:24;16.80;99.90
13808;DHT22;40769;51.512;5.494;2022-10-30T03:18:51;16.90;99.90
13808;DHT22;40769;51.512;5.494;2022-10-30T03:21:20;16.70;99.90
13808;DHT22;40769;51.512;5.494;2022-10-30T03:23:46;16.70;99.90
13808;DHT22;40769;51.512;5.494;2022-10-30T03:26:12;16.70;99.90
13808;DHT22;40769;51.512;5.494;2022-10-30T03:28:38;16.70;99.90
13808;DHT22;40769;51.512;5.494;2022-10-30T03:31:04;16.80;99.90
13808;DHT22;40769;51.512;5.494;2022-10-30T03:33:31;16.70;99.90
13808;DHT22;40769;51.512;5.494;2022-10-30T03:35:57;16.70;99.90
13808;DHT22;40769;51.512;5.494;2022-10-30T03:38:22;16.70;99.90
13808;DHT22;40769;51.512;5.494;2022-10-30T03:40:48;16.70;99.90
13808;DHT22;40769;51.512;5.494;2022-10-30T03:43:14;16.70;99.90
13808;DHT22;40769;51.512;5.494;2022-10-30T03:45:45;16.70;99.90
13808;DHT22;40769;51.512;5.494;2022-10-30T03:48:11;16.70;99.90
13808;DHT22;40769;51.512;5.494;2022-10-30T03:50:37;17.00;99.90
13808;DHT22;40769;51.512;5.494;2022-10-30T03:53:02;16.80;99.90
13808;DHT22;40769;51.512;5.494;2022-10-30T03:55:28;16.80;99.90
13808;DHT22;40769;51.512;5.494;2022-10-30T03:57:53;16.70;99.90
13808;DHT22;40769;51.512;5.494;2022-10-30T04:00:19;16.80;99.90
13808;DHT22;40769;51.512;5.494;2022-10-30T04:02:49;16.80;99.90
13808;DHT22;40769;51.512;5.494;2022-10-30T04:05:16;16.80;99.90
13808;DHT22;40769;51.512;5.494;2022-10-30T04:07:42;16.70;99.90
13808;DHT22;40769;51.512;5.494;2022-10-30T04:10:08;16.80;99.90
13808;DHT22;40769;51.512;5.494;2022-10-30T04:12:34;16.80;99.90
13808;DHT22;40769;51.512;5.494;2022-10-30T04:15:00;16.80;99.90
13808;DHT22;40769;51.512;5.494;2022-10-30T04:17:26;16.80;99.90
13808;DHT22;40769;51.512;5.494;2022-10-30T04:19:51;16.90;99.90
13808;DHT22;40769;51.512;5.494;2022-10-30T04:22:17;16.90;99.90
13808;DHT22;40769;51.512;5.494;2022-10-30T04:24:42;16.90;99.90
13808;DHT22;40769;51.512;5.494;2022-10-30T04:27:09;16.90;99.90
13808;DHT22;40769;51.512;5.494;2022-10-30T04:29:34;16.90;99.90
13808;DHT22;40769;51.512;5.494;2022-10-30T04:32:02;16.90;99.90
13808;DHT22;40769;51.512;5.494;2022-10-30T04:34:27;16.90;99.90
13808;DHT22;40769;51.512;5.494;2022-10-30T04:36:53;16.80;99.90
13808;DHT22;40769;51.512;5.494;2022-10-30T04:39:19;16.80;99.90
13808;DHT22;40769;51.512;5.494;2022-10-30T04:41:45;16.80;99.90
13808;DHT22;40769;51.512;5.494;2022-10-30T04:44:10;16.80;99.90
13808;DHT22;40769;51.512;5.494;2022-10-30T04:46:36;16.80;99.90
13808;DHT22;40769;51.512;5.494;2022-10-30T04:49:02;17.40;99.90
13808;DHT22;40769;51.512;5.494;2022-10-30T04:51:27;16.70;99.90
13808;DHT22;40769;51.512;5.494;2022-10-30T04:53:53;16.70;99.90
13808;DHT22;40769;51.512;5.494;2022-10-30T04:56:19;16.70;99.90
13808;DHT22;40769;51.512;5.494;2022-10-30T04:58:45;16.60;99.90
13808;DHT22;40769;51.512;5.494;2022-10-30T05:01:10;16.80;99.90
13808;DHT22;40769;51.512;5.494;2022-10-30T05:03:36;16.60;99.90
13808;DHT22;40769;51.512;5.494;2022-10-30T05:06:22;16.80;99.90
13808;DHT22;40769;51.512;5.494;2022-10-30T05:08:49;16.60;99.90
13808;DHT22;40769;51.512;5.494;2022-10-30T05:11:16;16.60;99.90
13808;DHT22;40769;51.512;5.494;2022-10-30T05:13:42;16.50;99.90
13808;DHT22;40769;51.512;5.494;2022-10-30T05:16:07;16.50;99.90
13808;DHT22;40769;51.512;5.494;2022-10-30T05:18:33;16.50;99.90
13808;DHT22;40769;51.512;5.494;2022-10-30T05:20:58;16.50;99.90
13808;DHT22;40769;51.512;5.494;2022-10-30T05:23:24;16.50;99.90
13808;DHT22;40769;51.512;5.494;2022-10-30T05:25:50;16.50;99.90
13808;DHT22;40769;51.512;5.494;2022-10-30T05:28:15;16.50;99.90
13808;DHT22;40769;51.512;5.494;2022-10-30T05:30:41;16.60;99.90
13808;DHT22;40769;51.512;5.494;2022-10-30T05:33:09;16.50;99.90
13808;DHT22;40769;51.512;5.494;2022-10-30T05:35:35;16.50;99.90
13808;DHT22;40769;51.512;5.494;2022-10-30T05:38:02;16.50;99.90
13808;DHT22;40769;51.512;5.494;2022-10-30T05:40:28;16.50;99.90
13808;DHT22;40769;51.512;5.494;2022-10-30T05:42:54;16.50;99.90
13808;DHT22;40769;51.512;5.494;2022-10-30T05:45:20;16.50;99.90
13808;DHT22;40769;51.512;5.494;2022-10-30T05:47:56;16.50;99.90
13808;DHT22;40769;51.512;5.494;2022-10-30T05:50:22;16.50;99.90
13808;DHT22;40769;51.512;5.494;2022-10-30T05:52:48;16.50;99.90
13808;DHT22;40769;51.512;5.494;2022-10-30T05:55:14;16.40;99.90
13808;DHT22;40769;51.512;5.494;2022-10-30T05:57:39;16.40;99.90
13808;DHT22;40769;51.512;5.494;2022-10-30T06:00:05;16.40;99.90
13808;DHT22;40769;51.512;5.494;2022-10-30T06:02:31;16.40;99.90
13808;DHT22;40769;51.512;5.494;2022-10-30T06:04:57;16.50;99.90
13808;DHT22;40769;51.512;5.494;2022-10-30T06:07:23;16.30;99.90
13808;DHT22;40769;51.512;5.494;2022-10-30T06:09:48;16.30;99.90
13808;DHT22;40769;51.512;5.494;2022-10-30T06:12:14;16.20;99.90
13808;DHT22;40769;51.512;5.494;2022-10-30T06:14:39;16.20;99.90
13808;DHT22;40769;51.512;5.494;2022-10-30T06:17:05;16.10;99.90
13808;DHT22;40769;51.512;5.494;2022-10-30T06:19:30;16.10;99.90
13808;DHT22;40769;51.512;5.494;2022-10-30T06:21:56;16.00;99.90
13808;DHT22;40769;51.512;5.494;2022-10-30T06:24:21;16.00;99.90
13808;DHT22;40769;51.512;5.494;2022-10-30T06:26:47;16.00;99.90
13808;DHT22;40769;51.512;5.494;2022-10-30T06:29:13;15.90;99.90
13808;DHT22;40769;51.512;5.494;2022-10-30T06:31:39;15.90;99.90
13808;DHT22;40769;51.512;5.494;2022-10-30T06:34:05;15.90;99.90
13808;DHT22;40769;51.512;5.494;2022-10-30T06:36:30;15.90;99.90
13808;DHT22;40769;51.512;5.494;2022-10-30T06:38:56;15.90;99.90
13808;DHT22;40769;51.512;5.494;2022-10-30T06:41:22;15.80;99.90
13808;DHT22;40769;51.512;5.494;2022-10-30T06:43:47;15.80;99.90
13808;DHT22;40769;51.512;5.494;2022-10-30T06:46:13;15.70;99.90
13808;DHT22;40769;51.512;5.494;2022-10-30T06:48:38;15.70;99.90
13808;DHT22;40769;51.512;5.494;2022-10-30T06:51:04;15.60;99.90
13808;DHT22;40769;51.512;5.494;2022-10-30T06:53:30;15.60;99.90
13808;DHT22;40769;51.512;5.494;2022-10-30T06:55:58;15.70;99.90
13808;DHT22;40769;51.512;5.494;2022-10-30T06:58:24;15.60;99.90
13808;DHT22;40769;51.512;5.494;2022-10-30T07:00:50;15.60;99.90
13808;DHT22;40769;51.512;5.494;2022-10-30T07:03:16;15.60;99.90
13808;DHT22;40769;51.512;5.494;2022-10-30T07:05:41;15.60;99.90
13808;DHT22;40769;51.512;5.494;2022-10-30T07:08:07;15.70;99.90
13808;DHT22;40769;51.512;5.494;2022-10-30T07:10:33;15.60;99.90
13808;DHT22;40769;51.512;5.494;2022-10-30T07:12:58;15.90;99.90
13808;DHT22;40769;51.512;5.494;2022-10-30T07:15:24;15.80;99.90
13808;DHT22;40769;51.512;5.494;2022-10-30T07:17:55;16.00;99.90
13808;DHT22;40769;51.512;5.494;2022-10-30T07:20:21;15.90;99.90
13808;DHT22;40769;51.512;5.494;2022-10-30T07:22:46;16.00;99.90
13808;DHT22;40769;51.512;5.494;2022-10-30T07:25:12;16.00;99.90
13808;DHT22;40769;51.512;5.494;2022-10-30T07:27:42;16.10;99.90
13808;DHT22;40769;51.512;5.494;2022-10-30T07:30:10;16.20;99.90
13808;DHT22;40769;51.512;5.494;2022-10-30T07:32:36;16.20;99.90
13808;DHT22;40769;51.512;5.494;2022-10-30T07:35:05;16.30;99.90
13808;DHT22;40769;51.512;5.494;2022-10-30T07:37:31;16.50;99.90
13808;DHT22;40769;51.512;5.494;2022-10-30T07:39:57;16.60;99.90
13808;DHT22;40769;51.512;5.494;2022-10-30T07:42:22;16.70;99.90
13808;DHT22;40769;51.512;5.494;2022-10-30T07:44:48;16.80;99.90
13808;DHT22;40769;51.512;5.494;2022-10-30T07:47:13;16.90;99.90
13808;DHT22;40769;51.512;5.494;2022-10-30T07:49:39;17.00;99.90
13808;DHT22;40769;51.512;5.494;2022-10-30T07:52:05;17.10;99.90
13808;DHT22;40769;51.512;5.494;2022-10-30T07:54:30;17.20;99.90
13808;DHT22;40769;51.512;5.494;2022-10-30T07:56:56;17.20;99.90
13808;DHT22;40769;51.512;5.494;2022-10-30T07:59:23;17.40;99.90
13808;DHT22;40769;51.512;5.494;2022-10-30T08:01:49;17.70;99.90
13808;DHT22;40769;51.512;5.494;2022-10-30T08:04:15;17.50;99.90
13808;DHT22;40769;51.512;5.494;2022-10-30T08:06:41;17.60;99.90
13808;DHT22;40769;51.512;5.494;2022-10-30T08:09:07;17.70;99.90
13808;DHT22;40769;51.512;5.494;2022-10-30T08:11:32;17.90;99.90
13808;DHT22;40769;51.512;5.494;2022-10-30T08:13:58;18.00;99.90
13808;DHT22;40769;51.512;5.494;2022-10-30T08:16:24;18.20;99.90
13808;DHT22;40769;51.512;5.494;2022-10-30T08:18:49;18.40;99.90
13808;DHT22;40769;51.512;5.494;2022-10-30T08:21:15;18.50;99.90
13808;DHT22;40769;51.512;5.494;2022-10-30T08:23:41;18.70;99.90
13808;DHT22;40769;51.512;5.494;2022-10-30T08:26:06;18.80;99.90
13808;DHT22;40769;51.512;5.494;2022-10-30T08:28:32;19.00;99.90
13808;DHT22;40769;51.512;5.494;2022-10-30T08:30:59;19.10;99.90
13808;DHT22;40769;51.512;5.494;2022-10-30T08:33:24;19.10;99.90
13808;DHT22;40769;51.512;5.494;2022-10-30T08:35:53;19.20;99.90
13808;DHT22;40769;51.512;5.494;2022-10-30T08:38:21;19.30;99.90
13808;DHT22;40769;51.512;5.494;2022-10-30T08:40:47;19.40;99.90
13808;DHT22;40769;51.512;5.494;2022-10-30T08:43:12;19.50;99.90
13808;DHT22;40769;51.512;5.494;2022-10-30T08:45:38;19.50;99.90
13808;DHT22;40769;51.512;5.494;2022-10-30T08:48:04;19.80;99.90
13808;DHT22;40769;51.512;5.494;2022-10-30T08:50:32;19.70;99.90
13808;DHT22;40769;51.512;5.494;2022-10-30T08:53:07;19.80;99.90
13808;DHT22;40769;51.512;5.494;2022-10-30T08:55:34;19.90;99.90
13808;DHT22;40769;51.512;5.494;2022-10-30T08:58:00;20.00;99.90
13808;DHT22;40769;51.512;5.494;2022-10-30T09:00:26;20.10;99.90
13808;DHT22;40769;51.512;5.494;2022-10-30T09:02:52;20.20;99.90
13808;DHT22;40769;51.512;5.494;2022-10-30T09:05:18;20.40;99.90
13808;DHT22;40769;51.512;5.494;2022-10-30T09:07:44;20.50;99.90
13808;DHT22;40769;51.512;5.494;2022-10-30T09:10:10;20.70;99.90
13808;DHT22;40769;51.512;5.494;2022-10-30T09:12:35;20.80;99.90
13808;DHT22;40769;51.512;5.494;2022-10-30T09:15:01;21.00;99.90
13808;DHT22;40769;51.512;5.494;2022-10-30T09:17:27;21.20;99.90
13808;DHT22;40769;51.512;5.494;2022-10-30T09:19:53;21.40;99.90
13808;DHT22;40769;51.512;5.494;2022-10-30T09:22:19;21.60;99.90
13808;DHT22;40769;51.512;5.494;2022-10-30T09:24:44;21.70;99.90
13808;DHT22;40769;51.512;5.494;2022-10-30T09:27:10;21.90;99.90
13808;DHT22;40769;51.512;5.494;2022-10-30T09:29:36;22.10;99.90
13808;DHT22;40769;51.512;5.494;2022-10-30T09:32:02;22.30;99.90
13808;DHT22;40769;51.512;5.494;2022-10-30T09:34:32;22.60;99.90
13808;DHT22;40769;51.512;5.494;2022-10-30T09:36:58;22.70;99.90
13808;DHT22;40769;51.512;5.494;2022-10-30T09:39:24;23.00;99.90
13808;DHT22;40769;51.512;5.494;2022-10-30T09:42:06;23.20;99.90
13808;DHT22;40769;51.512;5.494;2022-10-30T09:45:10;23.40;99.90
13808;DHT22;40769;51.512;5.494;2022-10-30T10:01:27;24.10;99.90
13808;DHT22;40769;51.512;5.494;2022-10-30T10:04:18;24.00;99.90
13808;DHT22;40769;51.512;5.494;2022-10-30T10:06:49;24.00;99.90
13808;DHT22;40769;51.512;5.494;2022-10-30T10:09:22;23.90;99.90
13808;DHT22;40769;51.512;5.494;2022-10-30T10:12:08;23.90;99.90
13808;DHT22;40769;51.512;5.494;2022-10-30T10:14:39;23.90;99.90
13808;DHT22;40769;51.512;5.494;2022-10-30T10:17:12;23.80;99.90
13808;DHT22;40769;51.512;5.494;2022-10-30T10:19:43;23.80;99.90
13808;DHT22;40769;51.512;5.494;2022-10-30T10:22:25;23.80;99.90
13808;DHT22;40769;51.512;5.494;2022-10-30T10:24:52;23.80;99.90
13808;DHT22;40769;51.512;5.494;2022-10-30T10:27:38;23.90;99.90
13808;DHT22;40769;51.512;5.494;2022-10-30T10:30:15;23.90;99.90
13808;DHT22;40769;51.512;5.494;2022-10-30T10:36:06;24.00;99.90
13808;DHT22;40769;51.512;5.494;2022-10-30T10:41:29;24.20;99.90
13808;DHT22;40769;51.512;5.494;2022-10-30T10:52:35;24.40;99.90
13808;DHT22;40769;51.512;5.494;2022-10-30T10:55:06;24.40;99.90
13808;DHT22;40769;51.512;5.494;2022-10-30T10:57:37;24.40;99.90
13808;DHT22;40769;51.512;5.494;2022-10-30T11:00:06;24.50;99.90
13808;DHT22;40769;51.512;5.494;2022-10-30T11:02:52;24.50;99.90
13808;DHT22;40769;51.512;5.494;2022-10-30T11:05:34;24.50;99.90
13808;DHT22;40769;51.512;5.494;2022-10-30T11:08:27;24.60;99.90
13808;DHT22;40769;51.512;5.494;2022-10-30T11:11:02;24.70;99.90
13808;DHT22;40769;51.512;5.494;2022-10-30T11:13:30;24.70;99.90
13808;DHT22;40769;51.512;5.494;2022-10-30T11:18:34;24.70;99.90
13808;DHT22;40769;51.512;5.494;2022-10-30T11:21:08;24.70;99.90
13808;DHT22;40769;51.512;5.494;2022-10-30T11:26:01;24.70;99.90
13808;DHT22;40769;51.512;5.494;2022-10-30T11:28:41;24.70;99.90
13808;DHT22;40769;51.512;5.494;2022-10-30T11:31:30;24.70;99.90
13808;DHT22;40769;51.512;5.494;2022-10-30T11:34:30;24.70;99.90
13808;DHT22;40769;51.512;5.494;2022-10-30T11:36:56;24.70;99.90
13808;DHT22;40769;51.512;5.494;2022-10-30T11:39:27;24.70;99.90
13808;DHT22;40769;51.512;5.494;2022-10-30T11:42:13;24.70;99.90
13808;DHT22;40769;51.512;5.494;2022-10-30T11:44:42;24.70;99.90
13808;DHT22;40769;51.512;5.494;2022-10-30T11:47:09;24.70;99.90
13808;DHT22;40769;51.512;5.494;2022-10-30T11:49:38;24.70;99.90
13808;DHT22;40769;51.512;5.494;2022-10-30T11:52:05;24.70;99.90
13808;DHT22;40769;51.512;5.494;2022-10-30T11:54:36;24.70;99.90
13808;DHT22;40769;51.512;5.494;2022-10-30T11:57:04;24.70;99.90
13808;DHT22;40769;51.512;5.494;2022-10-30T11:59:35;24.70;99.90
13808;DHT22;40769;51.512;5.494;2022-10-30T12:02:17;24.70;99.90
13808;DHT22;40769;51.512;5.494;2022-10-30T12:04:43;24.80;99.90
13808;DHT22;40769;51.512;5.494;2022-10-30T12:09:47;24.80;99.90
13808;DHT22;40769;51.512;5.494;2022-10-30T12:17:39;24.80;99.90
13808;DHT22;40769;51.512;5.494;2022-10-30T12:20:06;24.80;99.90
13808;DHT22;40769;51.512;5.494;2022-10-30T12:22:34;24.80;99.90
13808;DHT22;40769;51.512;5.494;2022-10-30T12:25:03;24.80;99.90
13808;DHT22;40769;51.512;5.494;2022-10-30T12:27:34;24.80;99.90
13808;DHT22;40769;51.512;5.494;2022-10-30T12:30:18;24.80;99.90
13808;DHT22;40769;51.512;5.494;2022-10-30T12:35:37;24.80;99.90
13808;DHT22;40769;51.512;5.494;2022-10-30T12:38:10;24.80;99.90
13808;DHT22;40769;51.512;5.494;2022-10-30T12:40:42;24.80;99.90
13808;DHT22;40769;51.512;5.494;2022-10-30T12:43:23;24.80;99.90
13808;DHT22;40769;51.512;5.494;2022-10-30T12:45:55;24.80;99.90
13808;DHT22;40769;51.512;5.494;2022-10-30T12:48:32;24.80;99.90
13808;DHT22;40769;51.512;5.494;2022-10-30T12:51:22;24.80;99.90
13808;DHT22;40769;51.512;5.494;2022-10-30T12:54:11;24.80;99.90
13808;DHT22;40769;51.512;5.494;2022-10-30T12:56:42;24.90;99.90
13808;DHT22;40769;51.512;5.494;2022-10-30T13:02:08;25.00;99.90
13808;DHT22;40769;51.512;5.494;2022-10-30T13:04:39;25.00;99.90
13808;DHT22;40769;51.512;5.494;2022-10-30T13:09:55;25.10;99.90
13808;DHT22;40769;51.512;5.494;2022-10-30T13:12:28;25.20;99.90
13808;DHT22;40769;51.512;5.494;2022-10-30T13:14:58;25.20;99.90
13808;DHT22;40769;51.512;5.494;2022-10-30T13:17:25;25.30;99.90
13808;DHT22;40769;51.512;5.494;2022-10-30T13:19:53;25.40;99.90
13808;DHT22;40769;51.512;5.494;2022-10-30T13:22:21;25.40;99.90
13808;DHT22;40769;51.512;5.494;2022-10-30T13:25:10;25.50;99.90
13808;DHT22;40769;51.512;5.494;2022-10-30T13:27:56;25.50;99.90
13808;DHT22;40769;51.512;5.494;2022-10-30T13:30:28;25.60;99.90
13808;DHT22;40769;51.512;5.494;2022-10-30T13:33:06;25.50;99.90
13808;DHT22;40769;51.512;5.494;2022-10-30T13:41:45;25.40;99.90
13808;DHT22;40769;51.512;5.494;2022-10-30T13:44:18;25.40;99.90
13808;DHT22;40769;51.512;5.494;2022-10-30T13:47:08;25.30;99.90
13808;DHT22;40769;51.512;5.494;2022-10-30T13:49:56;25.20;99.90
13808;DHT22;40769;51.512;5.494;2022-10-30T13:52:26;25.10;99.90
13808;DHT22;40769;51.512;5.494;2022-10-30T13:55:15;25.00;99.90
13808;DHT22;40769;51.512;5.494;2022-10-30T13:58:05;24.90;99.90
13808;DHT22;40769;51.512;5.494;2022-10-30T14:08:54;24.60;99.90
13808;DHT22;40769;51.512;5.494;2022-10-30T14:11:21;23.70;99.90
13808;DHT22;40769;51.512;5.494;2022-10-30T14:13:55;24.60;99.90
13808;DHT22;40769;51.512;5.494;2022-10-30T14:16:44;24.60;99.90
13808;DHT22;40769;51.512;5.494;2022-10-30T14:19:14;24.60;99.90
13808;DHT22;40769;51.512;5.494;2022-10-30T14:21:54;24.60;99.90
13808;DHT22;40769;51.512;5.494;2022-10-30T14:26:54;24.60;99.90
13808;DHT22;40769;51.512;5.494;2022-10-30T14:31:54;24.50;99.90
13808;DHT22;40769;51.512;5.494;2022-10-30T14:34:57;24.50;99.90
13808;DHT22;40769;51.512;5.494;2022-10-30T14:39:50;24.50;99.90
13808;DHT22;40769;51.512;5.494;2022-10-30T15:02:58;24.90;99.90
13808;DHT22;40769;51.512;5.494;2022-10-30T15:13:31;25.00;99.90
13808;DHT22;40769;51.512;5.494;2022-10-30T15:16:01;24.90;99.90
13808;DHT22;40769;51.512;5.494;2022-10-30T15:18:28;24.80;99.90
13808;DHT22;40769;51.512;5.494;2022-10-30T15:20:55;24.80;99.90
13808;DHT22;40769;51.512;5.494;2022-10-30T15:23:27;24.70;99.90
13808;DHT22;40769;51.512;5.494;2022-10-30T15:25:57;24.60;99.90
13808;DHT22;40769;51.512;5.494;2022-10-30T15:28:26;24.50;99.90
13808;DHT22;40769;51.512;5.494;2022-10-30T15:31:12;24.40;99.90
13808;DHT22;40769;51.512;5.494;2022-10-30T15:33:44;24.20;99.90
13808;DHT22;40769;51.512;5.494;2022-10-30T15:36:22;24.10;99.90
13808;DHT22;40769;51.512;5.494;2022-10-30T15:39:13;23.90;99.90
13808;DHT22;40769;51.512;5.494;2022-10-30T15:42:00;23.80;99.90
13808;DHT22;40769;51.512;5.494;2022-10-30T15:44:29;23.80;99.90
13808;DHT22;40769;51.512;5.494;2022-10-30T15:46:58;23.50;99.90
13808;DHT22;40769;51.512;5.494;2022-10-30T15:49:34;23.30;99.90
13808;DHT22;40769;51.512;5.494;2022-10-30T15:52:02;23.20;99.90
13808;DHT22;40769;51.512;5.494;2022-10-30T15:54:29;23.10;99.90
13808;DHT22;40769;51.512;5.494;2022-10-30T15:56:57;23.00;99.90
13808;DHT22;40769;51.512;5.494;2022-10-30T15:59:25;22.80;99.90
13808;DHT22;40769;51.512;5.494;2022-10-30T16:01:53;22.80;99.90
13808;DHT22;40769;51.512;5.494;2022-10-30T16:04:22;22.60;99.90
13808;DHT22;40769;51.512;5.494;2022-10-30T16:07:00;22.50;99.90
13808;DHT22;40769;51.512;5.494;2022-10-30T16:09:26;22.50;99.90
13808;DHT22;40769;51.512;5.494;2022-10-30T16:11:55;22.30;99.90
13808;DHT22;40769;51.512;5.494;2022-10-30T16:14:27;22.20;99.90
13808;DHT22;40769;51.512;5.494;2022-10-30T16:16:53;22.20;99.90
13808;DHT22;40769;51.512;5.494;2022-10-30T16:19:26;22.10;99.90
13808;DHT22;40769;51.512;5.494;2022-10-30T16:21:54;22.00;99.90
13808;DHT22;40769;51.512;5.494;2022-10-30T16:24:28;21.90;99.90
13808;DHT22;40769;51.512;5.494;2022-10-30T16:27:16;21.80;99.90
13808;DHT22;40769;51.512;5.494;2022-10-30T16:29:44;21.70;99.90
13808;DHT22;40769;51.512;5.494;2022-10-30T16:32:13;21.70;99.90
13808;DHT22;40769;51.512;5.494;2022-10-30T16:34:41;21.60;99.90
13808;DHT22;40769;51.512;5.494;2022-10-30T16:37:19;21.60;99.90
13808;DHT22;40769;51.512;5.494;2022-10-30T16:39:50;21.50;99.90
13808;DHT22;40769;51.512;5.494;2022-10-30T16:42:24;21.40;99.90
13808;DHT22;40769;51.512;5.494;2022-10-30T16:45:02;21.40;99.90
13808;DHT22;40769;51.512;5.494;2022-10-30T16:47:40;21.30;99.90
13808;DHT22;40769;51.512;5.494;2022-10-30T16:50:13;21.30;99.90
13808;DHT22;40769;51.512;5.494;2022-10-30T16:52:40;21.20;99.90
13808;DHT22;40769;51.512;5.494;2022-10-30T16:55:08;21.20;99.90
13808;DHT22;40769;51.512;5.494;2022-10-30T16:57:42;21.10;99.90
13808;DHT22;40769;51.512;5.494;2022-10-30T17:00:18;21.00;99.90
13808;DHT22;40769;51.512;5.494;2022-10-30T17:02:46;21.00;99.90
13808;DHT22;40769;51.512;5.494;2022-10-30T17:05:30;20.90;99.90
13808;DHT22;40769;51.512;5.494;2022-10-30T17:07:59;20.80;99.90
13808;DHT22;40769;51.512;5.494;2022-10-30T17:10:42;20.70;99.90
13808;DHT22;40769;51.512;5.494;2022-10-30T17:13:34;20.70;99.90
13808;DHT22;40769;51.512;5.494;2022-10-30T17:18:41;20.50;99.90
13808;DHT22;40769;51.512;5.494;2022-10-30T17:21:16;20.40;99.90
13808;DHT22;40769;51.512;5.494;2022-10-30T17:23:47;20.30;99.90
13808;DHT22;40769;51.512;5.494;2022-10-30T17:26:14;20.10;99.90
13808;DHT22;40769;51.512;5.494;2022-10-30T17:28:40;21.30;99.90
13808;DHT22;40769;51.512;5.494;2022-10-30T17:31:30;19.90;99.90
13808;DHT22;40769;51.512;5.494;2022-10-30T17:34:16;19.80;99.90
13808;DHT22;40769;51.512;5.494;2022-10-30T17:36:42;19.60;99.90
13808;DHT22;40769;51.512;5.494;2022-10-30T17:39:08;19.60;99.90
13808;DHT22;40769;51.512;5.494;2022-10-30T17:41:35;19.60;99.90
13808;DHT22;40769;51.512;5.494;2022-10-30T17:44:00;19.60;99.90
13808;DHT22;40769;51.512;5.494;2022-10-30T17:46:26;19.80;99.90
13808;DHT22;40769;51.512;5.494;2022-10-30T17:48:52;19.70;99.90
13808;DHT22;40769;51.512;5.494;2022-10-30T17:51:18;19.80;99.90